La Crosse, Wisconsin
Current Conditions -  °F | °C
As of 2:53 PM on Monday 24 Nov 2014 (Local Time) from KLSE Reporting Station
Light Snow Light Snow  
Wind Chill: 14°   Ceiling: 2000
Heat Index: 27°   Visibility: 4mi
Dew Point: 20°   Wind: 17mph
Humidity: 75%   Direction: 290°WNW
Pressure: 29.48"   Gusts: NA
Location:  43.81°N, 91.25°W
Report Text: KLSE 242053Z 29015KT 4SM -SN OVC020 M03/M07 A2948 RMK AO2 SLP992 P0000 60001 T10281067 53044
Loading
Personal Weather Stations






























Interactive Weather Map New forecast layout! Learn more

10-Day Weather Forecast

Advertisements
Track Severe Weather on mobile